Onamia, MN

5:14 AM CST on November 23, 2014 (GMT -0600)
Mora Municipal | Change Station
CLOSE
Current Station
Airport
Location: Mora,
Elevation: 1010 ft
Nearby Weather Stations
Active Advisory: Dense Fog Advisory

Elev 1010 ft 45.89 °N, 93.27 °W | Updated 14 minutes ago

Fog
Fog
36 °F
Feels Like 31 °F
N
6
Wind Variable Wind from South

Today
High -- | Low -- °F
--% Chance of Precip.
Yesterday
High -- | Low -- °F
Precip. -- in
7:26 AM 4:35 PM
New Moon, 1% visible
Pressure 29.43 in
Visibility 0.2 miles
Clouds Overcast 100 ft
Windchill 31 °F
Dew Point 36 °F
Humidity 100%
Rainfall 0.00 in
Snow Depth Not available.
UV 0 out of 12
Pollen .10 out of 12
Air Quality Not available.
Flu Activity Not available.
METAR KJMR 231100Z AUTO 19005KT 1/4SM -RA OVC001 02/02 A2943 RMK AO2

More Conditions Fewer Conditions

Pressure 29.43 in
Visibility 0.2 miles
Clouds Overcast 100 ft
Windchill 31 °F
Dew Point 36 °F
Humidity 100%
Rainfall 0.00 in
Snow Depth Not available.
UV 0 out of 12
Pollen .10 out of 12
Air Quality Not available.
Flu Activity Not available.
METAR KJMR 231100Z AUTO 19005KT 1/4SM -RA OVC001 02/02 A2943 RMK AO2

More Conditions Fewer Conditions

10-Day Weather Forecast

Almanac

Astronomy

Nov. 23, 2014 Rise Set
Actual Time
Civil Twilight
Nautical Twilight
Astronomical Twilight
Moon
Length of Visible Light
Length of Day
Tomorrow will be .
, % of the Moon is Illuminated

Today's Extremes

State Highs State Lows

Community

WunderPhotos

Upload Photos

1,773,036 photos uploaded!

WunderBlogs® & News

Nearby

Air Quality

  Air Quality AQ Index Pollutant
Not available.

Snow Depth

Station Depth Elevation

Earthquake Activity

City Distance Mag. Time & Date
Minimum magnitude displayed is 2.5.

Coastal Water Temperatures

Place Temperature

Nearby Weather Stations